Time;durP1;ratioP1;P1;durP2;ratioP2;P2;SDS_P1;SDS_P2;PMS_P1;PMS_P2;Temp;Humidity;BMP_temperature;BMP_pressure;BME280_temperature;BME280_humidity;BME280_pressure;Samples;Min_cycle;Max_cycle;Signal;HPM_P1;HPM_P2
2022/08/11 00:00:12;;;;;;;1.83;1.13;;;17.60;95.30;;;;;;4997008;28;20242;-87
2022/08/11 00:03:02;;;;;;;1.80;1.30;;;17.60;95.40;;;;;;4996930;28;20275;-88
2022/08/11 00:05:28;;;;;;;3.10;1.30;;;17.60;95.50;;;;;;4997790;28;20175;-88
2022/08/11 00:07:57;;;;;;;2.13;1.27;;;17.50;95.60;;;;;;4996474;28;20188;-87
2022/08/11 00:10:25;;;;;;;4.47;1.30;;;17.50;95.50;;;;;;4997512;28;20262;-88
2022/08/11 00:12:55;;;;;;;1.48;1.10;;;17.40;95.40;;;;;;4996870;28;20180;-89
2022/08/11 00:15:23;;;;;;;2.85;1.13;;;17.40;95.60;;;;;;4996823;28;20175;-88
2022/08/11 00:17:55;;;;;;;2.92;1.20;;;17.50;95.50;;;;;;4996570;28;20214;-88
2022/08/11 00:20:22;;;;;;;3.75;1.30;;;17.40;95.50;;;;;;4996286;28;20176;-86
2022/08/11 00:22:48;;;;;;;3.47;1.27;;;17.40;95.90;;;;;;4996359;28;20186;-87
2022/08/11 00:25:20;;;;;;;1.80;1.35;;;17.30;96.10;;;;;;4996598;28;20184;-87
2022/08/11 00:27:47;;;;;;;3.08;1.25;;;17.20;96.40;;;;;;4996375;28;20247;-87
2022/08/11 00:30:14;;;;;;;2.15;1.20;;;17.00;96.60;;;;;;4996428;28;20214;-89
2022/08/11 00:32:43;;;;;;;2.50;1.30;;;17.00;96.90;;;;;;4996142;28;20191;-87
2022/08/11 00:35:14;;;;;;;5.90;1.38;;;16.90;97.20;;;;;;4995613;28;20191;-86
2022/08/11 00:37:48;;;;;;;4.65;1.63;;;16.90;96.90;;;;;;4996052;28;20516;-88
2022/08/11 00:40:22;;;;;;;1.95;1.05;;;16.90;96.90;;;;;;4996265;28;20188;-89
2022/08/11 00:43:21;;;;;;;3.38;1.25;;;16.90;97.00;;;;;;4996471;28;20263;-89
2022/08/11 00:46:15;;;;;;;1.83;1.17;;;16.90;97.10;;;;;;4995940;28;20227;-86
2022/08/11 00:49:01;;;;;;;1.75;1.20;;;16.80;96.80;;;;;;4978533;28;20180;-86
2022/08/11 00:51:54;;;;;;;2.00;1.17;;;16.80;96.90;;;;;;4995500;28;20669;-86
2022/08/11 00:54:38;;;;;;;2.35;1.23;;;16.80;96.90;;;;;;4995487;28;20180;-87
2022/08/11 00:57:38;;;;;;;4.78;1.42;;;16.80;97.20;;;;;;4995473;28;20180;-86
2022/08/11 01:00:06;;;;;;;3.63;1.10;;;16.80;97.40;;;;;;5035881;28;20191;-87
2022/08/11 01:02:54;;;;;;;2.50;1.38;;;16.70;97.50;;;;;;5017955;28;20186;-87
2022/08/11 01:05:44;;;;;;;2.15;1.50;;;16.60;97.60;;;;;;5017261;28;20525;-88
2022/08/11 01:08:24;;;;;;;1.58;1.15;;;16.60;97.40;;;;;;5017173;28;20210;-87
2022/08/11 01:11:18;;;;;;;4.75;1.48;;;16.60;97.30;;;;;;5035906;28;20206;-88
2022/08/11 01:14:21;;;;;;;1.90;1.38;;;16.60;97.60;;;;;;5017628;28;20229;-88
2022/08/11 01:17:09;;;;;;;1.50;1.00;;;16.70;97.60;;;;;;4998269;28;20183;-89
2022/08/11 01:20:09;;;;;;;2.30;1.10;;;16.60;97.60;;;;;;4998134;28;20266;-88
2022/08/11 01:22:43;;;;;;;2.40;1.50;;;16.60;97.50;;;;;;5007066;28;20175;-88
2022/08/11 01:25:41;;;;;;;3.95;1.55;;;16.60;97.50;;;;;;5017081;28;20186;-86
2022/08/11 01:28:26;;;;;;;3.30;1.38;;;16.70;97.60;;;;;;5015448;28;20164;-88
2022/08/11 01:31:28;;;;;;;1.85;1.20;;;16.60;97.60;;;;;;5000145;28;20884;-88
2022/08/11 01:34:26;;;;;;;2.88;1.30;;;16.50;97.60;;;;;;5034695;28;20252;-89
2022/08/11 01:37:05;;;;;;;3.25;1.50;;;16.40;97.80;;;;;;5011585;28;20199;-89
2022/08/11 01:39:52;;;;;;;5.70;1.42;;;16.40;98.00;;;;;;5017451;28;20185;-91
2022/08/11 01:45:30;;;;;;;4.20;1.33;;;16.40;97.80;;;;;;5034956;28;20216;-91
2022/08/11 01:48:03;;;;;;;1.48;1.38;;;16.30;97.80;;;;;;5017749;28;20254;-88
2022/08/11 01:51:04;;;;;;;1.70;1.40;;;16.30;98.00;;;;;;5035445;28;20309;-88
2022/08/11 01:53:38;;;;;;;5.35;1.30;;;16.20;97.90;;;;;;5034704;28;20170;-88
2022/08/11 01:56:22;;;;;;;2.03;1.50;;;16.20;98.10;;;;;;5016463;28;20181;-89
2022/08/11 01:59:06;;;;;;;1.40;1.20;;;16.20;98.10;;;;;;5016253;28;20576;-89
2022/08/11 02:01:34;;;;;;;1.80;1.23;;;16.20;98.10;;;;;;5016301;28;20660;-90
2022/08/11 02:04:12;;;;;;;2.83;1.20;;;16.20;98.10;;;;;;5033684;28;20178;-91
2022/08/11 02:06:57;;;;;;;5.20;1.58;;;16.10;98.20;;;;;;5027035;28;20202;-90
2022/08/11 02:09:45;;;;;;;7.57;1.75;;;16.10;98.10;;;;;;5016183;28;20189;-90
2022/08/11 02:12:32;;;;;;;2.40;1.50;;;16.10;98.50;;;;;;5016715;28;20609;-88
2022/08/11 02:15:05;;;;;;;1.70;1.20;;;16.10;98.70;;;;;;5015893;28;20274;-90
2022/08/11 02:18:17;;;;;;;2.65;1.80;;;16.00;98.60;;;;;;5016623;28;20237;-89
2022/08/11 02:23:51;;;;;;;2.10;1.35;;;16.00;98.50;;;;;;5030619;28;20193;-90
2022/08/11 02:26:32;;;;;;;1.80;1.40;;;16.00;99.00;;;;;;5016106;28;20185;-90
2022/08/11 02:29:00;;;;;;;1.55;1.30;;;15.90;99.10;;;;;;5016155;28;20197;-91
2022/08/11 02:34:17;;;;;;;4.60;1.55;;;15.80;99.10;;;;;;5023992;28;20190;-91
2022/08/11 02:37:15;;;;;;;2.55;1.75;;;15.80;99.20;;;;;;5015710;28;20277;-91
2022/08/11 02:40:09;;;;;;;1.80;1.48;;;15.80;99.40;;;;;;5016330;28;20676;-91
2022/08/11 02:43:03;;;;;;;4.28;1.70;;;15.80;99.30;;;;;;5033609;28;20209;-93
2022/08/11 02:45:46;;;;;;;2.22;1.77;;;15.80;99.60;;;;;;5033504;28;20568;-89
2022/08/11 02:54:22;;;;;;;1.88;1.50;;;15.60;99.80;;;;;;5405213;23;20238;-90
2022/08/11 02:56:56;;;;;;;1.92;1.50;;;15.50;99.90;;;;;;5014353;28;20651;-90
2022/08/11 02:59:52;;;;;;;5.00;1.52;;;15.50;99.80;;;;;;5001710;28;21262;-91
2022/08/11 03:02:55;;;;;;;3.22;1.52;;;15.50;99.70;;;;;;5007572;28;20183;-92
2022/08/11 03:06:13;;;;;;;4.57;1.60;;;15.50;99.40;;;;;;5008822;28;20504;-90
2022/08/11 03:08:51;;;;;;;2.90;1.67;;;15.50;99.50;;;;;;4963215;28;20233;-90
2022/08/11 03:17:51;;;;;;;2.50;1.58;;;15.30;99.90;;;;;;5012807;28;20490;-93
2022/08/11 03:20:41;;;;;;;4.07;1.70;;;15.20;99.90;;;;;;5010598;28;20183;-94
2022/08/11 03:23:32;;;;;;;1.90;1.40;;;15.20;99.90;;;;;;5005278;28;20635;-94
2022/08/11 03:26:08;;;;;;;5.57;1.83;;;15.30;99.90;;;;;;5015798;28;20879;-89
2022/08/11 03:29:00;;;;;;;3.58;1.70;;;15.10;99.90;;;;;;5004326;28;20523;-90
2022/08/11 03:32:11;;;;;;;1.85;1.60;;;15.20;99.90;;;;;;5011968;28;20250;-90
2022/08/11 03:34:47;;;;;;;2.85;1.85;;;14.90;99.90;;;;;;4992797;28;20210;-90
2022/08/11 03:37:50;;;;;;;1.95;1.60;;;15.00;99.90;;;;;;5001289;28;20185;-89
2022/08/11 03:44:09;;;;;;;5.97;1.90;;;14.90;99.90;;;;;;5018701;28;20241;-91
2022/08/11 03:46:58;;;;;;;4.25;1.70;;;14.90;99.90;;;;;;4969765;28;20233;-92
2022/08/11 03:49:45;;;;;;;5.03;1.83;;;14.80;99.90;;;;;;5016993;28;20333;-91
2022/08/11 03:52:52;;;;;;;1.70;1.60;;;14.80;99.90;;;;;;5008298;28;20652;-90
2022/08/11 03:55:31;;;;;;;2.10;1.90;;;14.80;99.90;;;;;;4987272;28;20203;-91
2022/08/11 03:58:38;;;;;;;2.50;1.60;;;14.80;99.90;;;;;;5006488;28;20193;-92
2022/08/11 04:01:28;;;;;;;2.38;1.60;;;14.80;99.90;;;;;;5005489;28;20602;-92
2022/08/11 04:03:57;;;;;;;2.30;1.70;;;14.70;99.90;;;;;;4992417;28;20194;-91
2022/08/11 04:06:56;;;;;;;5.72;1.75;;;14.60;99.90;;;;;;5007541;28;20653;-90
2022/08/11 04:09:45;;;;;;;4.35;1.80;;;14.60;99.90;;;;;;4999835;28;20176;-90
2022/08/11 04:12:37;;;;;;;2.83;2.10;;;14.50;99.90;;;;;;4998302;28;20183;-93
2022/08/11 04:18:19;;;;;;;2.90;1.60;;;14.50;99.90;;;;;;5008104;28;20190;-93
2022/08/11 04:21:05;;;;;;;2.75;1.70;;;14.50;99.90;;;;;;5016461;28;20179;-91
2022/08/11 04:23:52;;;;;;;3.22;1.67;;;14.60;99.90;;;;;;4986313;28;20237;-93
2022/08/11 04:26:43;;;;;;;3.10;1.73;;;14.70;99.90;;;;;;5016446;28;20203;-92
2022/08/11 04:29:30;;;;;;;4.88;1.70;;;14.70;99.90;;;;;;5007122;28;20617;-90
2022/08/11 04:32:24;;;;;;;2.42;1.50;;;14.60;99.90;;;;;;5016785;28;20190;-91
2022/08/11 04:35:18;;;;;;;2.65;1.77;;;14.70;99.90;;;;;;4987979;28;20191;-92
2022/08/11 04:38:20;;;;;;;3.38;1.60;;;14.70;99.90;;;;;;5014218;28;20183;-92
2022/08/11 04:41:19;;;;;;;2.45;1.67;;;14.80;99.90;;;;;;4987119;28;20645;-94
2022/08/11 04:43:55;;;;;;;3.88;1.73;;;14.80;99.90;;;;;;4991595;28;20194;-92
2022/08/11 04:46:47;;;;;;;2.45;1.90;;;14.80;99.90;;;;;;4998163;28;20532;-93
2022/08/11 05:03:00;;;;;;;2.10;1.90;;;15.00;99.90;;;;;;5015096;28;20194;-91
2022/08/11 05:06:06;;;;;;;2.55;1.98;;;15.10;99.90;;;;;;5016029;28;20493;-92
2022/08/11 05:09:09;;;;;;;5.10;1.90;;;15.20;99.90;;;;;;4986075;28;20187;-92
2022/08/11 05:11:50;;;;;;;6.30;2.05;;;15.20;99.90;;;;;;4989891;28;20222;-91
2022/08/11 05:34:52;;;;;;;4.78;2.30;;;15.60;99.90;;;;;;5012624;28;20233;-93
2022/08/11 05:37:33;;;;;;;3.30;2.28;;;15.70;99.90;;;;;;5013166;28;20183;-92
2022/08/11 05:57:06;;;;;;;4.47;2.40;;;16.20;99.90;;;;;;5015570;28;20221;-86
2022/08/11 05:59:33;;;;;;;5.03;2.30;;;16.30;99.90;;;;;;4997712;28;20606;-86
2022/08/11 06:02:07;;;;;;;4.28;2.63;;;16.40;99.90;;;;;;4997586;28;20205;-84
2022/08/11 06:04:33;;;;;;;5.60;2.42;;;16.50;99.90;;;;;;4996694;28;20182;-85
2022/08/11 06:07:11;;;;;;;9.80;2.90;;;16.50;99.90;;;;;;4996995;28;20181;-85
2022/08/11 06:09:48;;;;;;;7.43;2.60;;;16.60;99.90;;;;;;5014997;28;20155;-84
2022/08/11 06:12:34;;;;;;;11.70;2.75;;;16.70;99.90;;;;;;4997671;28;20610;-86
2022/08/11 06:15:05;;;;;;;5.65;2.35;;;16.80;99.90;;;;;;4996958;28;20175;-85
2022/08/11 06:17:43;;;;;;;9.43;2.85;;;16.80;99.90;;;;;;4997423;28;20270;-86
2022/08/11 06:20:12;;;;;;;10.48;2.60;;;17.00;99.90;;;;;;4997931;28;20182;-86
2022/08/11 06:22:42;;;;;;;7.03;2.40;;;17.00;99.90;;;;;;5013743;28;20241;-84
2022/08/11 06:25:09;;;;;;;4.53;2.22;;;17.20;99.90;;;;;;4996101;28;20218;-86
2022/08/11 06:27:38;;;;;;;5.53;2.70;;;17.30;99.90;;;;;;4997455;28;20175;-86
2022/08/11 06:30:12;;;;;;;4.38;2.70;;;17.40;99.90;;;;;;4997237;28;20242;-86
2022/08/11 06:32:44;;;;;;;4.72;2.47;;;17.50;99.90;;;;;;4997262;28;20171;-86
2022/08/11 06:35:32;;;;;;;4.18;2.40;;;17.60;99.90;;;;;;4999972;28;20183;-86
2022/08/11 06:38:04;;;;;;;5.25;2.63;;;17.70;99.90;;;;;;4997253;28;20233;-88
2022/08/11 06:43:53;;;;;;;2.60;2.40;;;17.90;99.90;;;;;;5015375;28;20217;-87
2022/08/11 06:46:31;;;;;;;5.55;2.28;;;18.10;99.90;;;;;;4980207;28;20177;-86
2022/08/11 06:49:01;;;;;;;1.98;1.77;;;18.20;99.90;;;;;;4977903;28;20184;-86
2022/08/11 06:51:27;;;;;;;4.95;2.38;;;18.30;99.90;;;;;;4994783;28;20211;-89
2022/08/11 06:53:56;;;;;;;4.13;2.28;;;18.40;99.90;;;;;;4964844;28;20233;-89
2022/08/11 07:02:32;;;;;;;5.82;2.05;;;18.70;99.90;;;;;;4975712;28;20301;-87
2022/08/11 07:05:22;;;;;;;3.65;2.20;;;18.90;99.90;;;;;;4967921;28;20181;-87
2022/08/11 07:28:57;;;;;;;2.20;1.90;;;20.20;98.30;;;;;;4956358;29;20196;-88
2022/08/11 07:31:40;;;;;;;3.90;2.03;;;20.30;97.70;;;;;;4954597;29;20304;-86
2022/08/11 07:34:18;;;;;;;5.25;2.22;;;20.50;97.20;;;;;;4958874;28;20191;-87
2022/08/11 07:36:57;;;;;;;4.40;1.98;;;20.60;97.30;;;;;;4968875;28;20188;-88
2022/08/11 07:39:33;;;;;;;7.45;2.40;;;20.90;97.20;;;;;;4974040;28;20172;-87
2022/08/11 07:42:03;;;;;;;3.95;2.25;;;21.00;96.80;;;;;;4973785;28;20638;-86
2022/08/11 07:44:30;;;;;;;3.95;2.10;;;21.20;96.90;;;;;;4975144;28;20172;-87
2022/08/11 07:52:36;;;;;;;9.95;2.45;;;21.60;95.40;;;;;;4959412;29;20269;-88
2022/08/11 07:55:14;;;;;;;5.93;2.00;;;21.70;95.70;;;;;;5002019;28;20558;-85
2022/08/11 08:17:51;;;;;;;5.25;1.83;;;22.80;94.00;;;;;;5017696;28;20167;-91
2022/08/11 08:20:22;;;;;;;4.90;2.00;;;22.90;92.90;;;;;;4994590;28;20237;-83
2022/08/11 08:22:55;;;;;;;3.10;1.70;;;23.10;93.40;;;;;;4999372;28;20503;-87
2022/08/11 08:25:35;;;;;;;2.10;1.60;;;23.20;93.00;;;;;;4992575;28;20199;-85
2022/08/11 08:28:15;;;;;;;4.30;1.60;;;23.40;93.10;;;;;;4991448;28;20614;-85
2022/08/11 08:30:50;;;;;;;2.78;1.70;;;23.50;92.20;;;;;;5016957;28;20676;-86
2022/08/11 08:33:27;;;;;;;2.70;1.67;;;23.70;91.70;;;;;;4999656;28;20171;-86
2022/08/11 08:36:11;;;;;;;3.38;1.73;;;23.70;91.40;;;;;;4992605;28;20179;-87
2022/08/11 08:38:55;;;;;;;6.15;1.75;;;23.80;91.10;;;;;;5016372;28;20164;-85
2022/08/11 08:41:28;;;;;;;3.05;1.60;;;24.00;90.40;;;;;;4999104;28;20176;-85
2022/08/11 08:44:02;;;;;;;5.13;1.80;;;24.20;90.50;;;;;;5016560;28;20203;-85
2022/08/11 08:46:35;;;;;;;2.75;1.80;;;24.30;90.70;;;;;;4983758;28;20171;-87
2022/08/11 08:49:03;;;;;;;3.85;1.70;;;24.50;90.50;;;;;;4997164;28;20179;-89
2022/08/11 08:51:35;;;;;;;1.80;1.65;;;24.60;89.00;;;;;;4979214;28;20211;-85
2022/08/11 08:54:37;;;;;;;2.33;1.67;;;24.70;88.70;;;;;;4965301;28;20553;-89
2022/08/11 08:57:05;;;;;;;3.28;1.65;;;24.90;88.40;;;;;;4958289;28;20185;-85
2022/08/11 08:59:36;;;;;;;6.07;1.88;;;25.00;87.70;;;;;;4957041;29;20180;-83
2022/08/11 09:02:04;;;;;;;9.13;1.70;;;25.00;86.90;;;;;;4956875;29;20293;-86
2022/08/11 09:04:31;;;;;;;2.90;1.70;;;25.10;87.00;;;;;;4975313;28;20251;-86
2022/08/11 09:07:08;;;;;;;4.68;1.60;;;25.20;87.10;;;;;;4961806;28;20181;-84
2022/08/11 09:09:34;;;;;;;3.50;1.70;;;25.40;85.50;;;;;;4975578;28;20183;-86
2022/08/11 09:12:04;;;;;;;5.85;1.55;;;25.40;85.50;;;;;;4975526;28;20235;-85
2022/08/11 09:17:22;;;;;;;2.67;1.50;;;25.70;82.70;;;;;;4977239;28;20231;-85
2022/08/11 09:19:59;;;;;;;3.85;1.80;;;25.70;80.60;;;;;;4970042;28;20605;-86
2022/08/11 09:28:13;;;;;;;4.93;1.60;;;26.00;81.50;;;;;;4957159;29;20220;-86
2022/08/11 09:30:54;;;;;;;3.40;1.83;;;26.10;82.80;;;;;;4955611;29;20252;-84
2022/08/11 09:33:22;;;;;;;4.85;1.73;;;26.30;81.00;;;;;;4955491;29;20177;-85
2022/08/11 09:35:50;;;;;;;9.95;1.52;;;26.40;80.40;;;;;;4972862;28;20255;-85
2022/08/11 09:41:06;;;;;;;1.55;1.40;;;26.60;81.80;;;;;;4976599;28;20179;-85
2022/08/11 09:46:26;;;;;;;2.60;1.60;;;26.80;81.00;;;;;;4974620;28;20616;-87
2022/08/11 09:48:55;;;;;;;3.42;1.42;;;27.00;79.80;;;;;;4974894;28;20181;-86
2022/08/11 09:51:22;;;;;;;4.05;1.70;;;27.10;79.90;;;;;;4974252;28;20240;-85
2022/08/11 09:53:50;;;;;;;2.65;1.67;;;27.20;77.70;;;;;;4994014;28;20243;-82
2022/08/11 09:59:06;;;;;;;4.55;1.33;;;27.30;77.60;;;;;;5015022;28;20174;-85
2022/08/11 10:01:48;;;;;;;2.03;1.42;;;27.40;76.80;;;;;;5013503;28;20648;-82
2022/08/11 10:04:17;;;;;;;1.58;1.30;;;27.40;77.00;;;;;;5014489;28;20183;-85
2022/08/11 10:07:03;;;;;;;3.00;1.48;;;27.50;75.70;;;;;;4994908;28;20241;-83
2022/08/11 10:09:40;;;;;;;1.67;1.33;;;27.50;72.90;;;;;;4977753;28;20179;-85
2022/08/11 10:12:23;;;;;;;2.90;1.80;;;27.60;75.30;;;;;;4977799;28;20230;-85
2022/08/11 10:18:40;;;;;;;1.42;1.30;;;27.80;75.20;;;;;;5002317;28;20198;-87
2022/08/11 10:20:32;;;;;;;1.83;1.30;;;27.80;73.50;;;;;;4994996;28;20649;-82
2022/08/11 10:28:41;;;;;;;2.20;1.30;;;28.10;71.40;;;;;;5008920;28;20245;-84
2022/08/11 10:33:59;;;;;;;1.27;1.10;;;28.20;68.30;;;;;;4997018;28;20166;-84
2022/08/11 10:36:37;;;;;;;1.50;1.33;;;28.40;71.60;;;;;;4994602;28;20195;-83
2022/08/11 10:39:05;;;;;;;5.80;1.50;;;28.40;69.80;;;;;;4996530;28;20253;-84
2022/08/11 10:44:19;;;;;;;1.50;1.20;;;28.50;67.40;;;;;;5014392;28;20202;-86
2022/08/11 10:49:32;;;;;;;1.30;1.20;;;28.60;66.60;;;;;;5001966;28;20197;-82
2022/08/11 11:00:14;;;;;;;2.67;1.23;;;28.80;66.40;;;;;;5014338;28;20174;-85
2022/08/11 11:02:44;;;;;;;3.35;1.30;;;28.80;67.20;;;;;;4996169;28;20643;-84
2022/08/11 11:05:24;;;;;;;2.30;1.35;;;28.80;67.40;;;;;;4996101;28;20194;-84
2022/08/11 11:11:08;;;;;;;1.70;1.40;;;28.90;66.70;;;;;;4988490;28;20696;-83
2022/08/11 11:19:09;;;;;;;1.80;1.20;;;28.90;66.20;;;;;;5015629;28;20617;-83
2022/08/11 11:21:37;;;;;;;1.45;1.25;;;29.00;66.20;;;;;;5017712;28;20172;-84
2022/08/11 11:24:48;;;;;;;2.08;1.40;;;29.10;65.40;;;;;;4999591;28;20191;-82
2022/08/11 11:27:52;;;;;;;3.55;1.27;;;29.10;65.20;;;;;;4969883;28;20195;-84
2022/08/11 11:30:18;;;;;;;3.05;1.08;;;29.20;65.00;;;;;;5006430;28;20333;-83
2022/08/11 11:33:05;;;;;;;2.05;1.30;;;29.20;64.50;;;;;;5017259;28;20164;-83
2022/08/11 11:35:55;;;;;;;2.60;1.10;;;29.20;65.60;;;;;;4995421;28;20273;-85
2022/08/11 11:38:21;;;;;;;2.28;1.25;;;29.40;63.80;;;;;;4995798;28;20180;-85
2022/08/11 11:41:23;;;;;;;5.65;1.52;;;29.50;65.70;;;;;;4979961;28;20191;-85
2022/08/11 11:43:35;;;;;;;2.55;1.60;;;29.50;64.30;;;;;;4997516;28;20509;-85
2022/08/11 11:46:02;;;;;;;2.17;1.30;;;29.60;64.70;;;;;;5013438;28;20196;-83
2022/08/11 11:48:29;;;;;;;2.13;1.25;;;29.50;62.40;;;;;;5014002;28;20651;-83
2022/08/11 11:50:55;;;;;;;2.45;1.23;;;29.60;63.90;;;;;;5005618;28;20229;-84
2022/08/11 11:53:21;;;;;;;4.22;1.10;;;29.50;62.60;;;;;;4995501;28;20235;-84
2022/08/11 11:55:47;;;;;;;2.00;1.27;;;29.50;63.30;;;;;;4996699;28;20191;-83
2022/08/11 12:01:18;;;;;;;1.38;1.25;;;29.50;63.80;;;;;;4977603;28;20223;-83
2022/08/11 12:03:50;;;;;;;4.10;1.30;;;29.50;64.90;;;;;;4978763;28;20165;-84
2022/08/11 12:06:20;;;;;;;2.72;1.60;;;29.70;65.00;;;;;;4995311;28;20211;-83
2022/08/11 12:08:49;;;;;;;4.30;1.13;;;29.70;62.50;;;;;;4994805;28;20188;-83
2022/08/11 12:14:05;;;;;;;1.98;1.38;;;30.00;64.20;;;;;;4997131;28;20254;-84
2022/08/11 12:16:33;;;;;;;2.20;1.40;;;30.00;63.80;;;;;;4995724;28;20507;-84
2022/08/11 12:19:02;;;;;;;4.15;1.20;;;30.10;62.70;;;;;;4985106;28;20183;-83
2022/08/11 12:21:28;;;;;;;2.22;1.30;;;30.00;62.00;;;;;;4995385;28;20226;-84
2022/08/11 12:29:18;;;;;;;4.50;1.33;;;30.30;63.00;;;;;;4995699;28;20187;-84
2022/08/11 12:31:47;;;;;;;3.67;1.50;;;30.40;62.30;;;;;;4995772;28;20207;-84
2022/08/11 12:34:15;;;;;;;1.95;1.30;;;30.40;63.30;;;;;;4995332;28;20183;-82
2022/08/11 12:36:58;;;;;;;2.50;1.30;;;30.40;62.80;;;;;;4996693;28;20222;-86
2022/08/11 12:53:45;;;;;;;4.75;1.40;;;30.50;62.50;;;;;;4981859;28;20894;-82
2022/08/11 13:07:15;;;;;;;2.70;1.30;;;31.00;62.70;;;;;;5015782;28;20165;-84
2022/08/11 13:09:43;;;;;;;1.88;1.27;;;31.10;60.70;;;;;;4985127;28;20266;-83
2022/08/11 13:14:54;;;;;;;2.28;1.17;;;31.20;61.10;;;;;;4996531;28;20171;-84
2022/08/11 13:17:23;;;;;;;2.58;1.15;;;31.00;59.80;;;;;;4982119;28;20193;-86
2022/08/11 13:19:50;;;;;;;2.17;1.30;;;30.90;59.20;;;;;;5014276;28;20186;-86
2022/08/11 13:22:21;;;;;;;3.05;1.15;;;30.90;59.60;;;;;;4993808;28;20229;-82
2022/08/11 13:24:48;;;;;;;1.73;1.23;;;30.90;59.50;;;;;;4995743;28;20175;-84
2022/08/11 13:27:17;;;;;;;4.05;1.50;;;31.10;59.50;;;;;;4993599;28;20602;-85
2022/08/11 13:29:45;;;;;;;3.35;1.27;;;31.20;58.50;;;;;;4997407;28;20190;-83
2022/08/11 13:32:13;;;;;;;2.88;1.33;;;31.20;59.00;;;;;;4997662;28;20190;-84
2022/08/11 13:34:41;;;;;;;1.80;1.10;;;31.20;58.40;;;;;;5014225;28;20218;-83
2022/08/11 13:37:10;;;;;;;1.58;1.10;;;31.30;58.40;;;;;;5013307;28;20175;-85
2022/08/11 13:39:39;;;;;;;1.27;1.10;;;31.30;58.30;;;;;;4992006;28;20180;-85
2022/08/11 13:42:05;;;;;;;1.33;1.00;;;31.30;56.90;;;;;;5014296;28;20163;-82
2022/08/11 13:44:34;;;;;;;1.83;1.10;;;31.40;57.60;;;;;;5014952;28;20171;-83
2022/08/11 13:47:03;;;;;;;1.52;1.00;;;31.30;56.20;;;;;;4997340;28;20178;-81
2022/08/11 13:49:36;;;;;;;2.92;1.23;;;31.30;57.40;;;;;;5004079;28;20609;-84
2022/08/11 13:52:03;;;;;;;2.65;1.13;;;31.40;57.50;;;;;;4995212;28;20588;-84
2022/08/11 13:54:37;;;;;;;1.75;1.23;;;31.40;58.10;;;;;;4995869;28;20238;-85
2022/08/11 13:57:05;;;;;;;2.45;1.30;;;31.10;56.70;;;;;;5014932;28;20159;-83
2022/08/11 13:59:32;;;;;;;3.08;1.17;;;31.10;56.80;;;;;;4987598;28;20241;-82
2022/08/11 14:02:11;;;;;;;1.48;1.02;;;31.20;57.70;;;;;;4995095;28;20218;-84
2022/08/11 14:04:59;;;;;;;4.75;1.35;;;31.10;57.90;;;;;;5003149;28;20188;-83
2022/08/11 14:07:34;;;;;;;1.77;1.20;;;31.20;57.90;;;;;;5013728;28;20194;-83
2022/08/11 14:10:01;;;;;;;3.35;1.23;;;31.30;57.80;;;;;;4985130;28;20182;-83
2022/08/11 14:15:23;;;;;;;2.15;1.30;;;31.40;57.20;;;;;;4994956;28;20185;-81
2022/08/11 14:18:03;;;;;;;1.58;1.27;;;31.40;57.80;;;;;;5005893;28;20178;-85
2022/08/11 14:23:19;;;;;;;2.13;1.20;;;31.40;57.80;;;;;;4994454;28;20214;-83
2022/08/11 14:28:32;;;;;;;1.88;1.30;;;31.30;57.30;;;;;;5007306;28;20262;-84
2022/08/11 14:30:59;;;;;;;3.45;1.20;;;31.30;55.40;;;;;;4996174;28;20221;-81
2022/08/11 14:33:25;;;;;;;2.03;1.30;;;31.30;57.10;;;;;;5014201;28;20171;-85
2022/08/11 14:35:51;;;;;;;2.15;1.10;;;31.20;55.40;;;;;;5013018;28;20281;-83
2022/08/11 14:38:18;;;;;;;1.98;1.10;;;31.20;56.20;;;;;;4984675;28;20638;-82
2022/08/11 14:49:00;;;;;;;2.08;1.30;;;31.10;57.70;;;;;;5000042;28;20337;-83
2022/08/11 14:51:27;;;;;;;2.28;1.40;;;31.00;57.10;;;;;;4976938;28;20218;-82
2022/08/11 14:56:34;;;;;;;2.42;1.15;;;30.90;56.20;;;;;;4999875;28;20234;-83
2022/08/11 14:56:39;;;;;;;2.53;1.30;;;30.80;56.30;;;;;;5000869;28;20178;-84
2022/08/11 14:59:06;;;;;;;3.15;1.63;;;30.80;57.70;;;;;;5001075;28;20182;-85
2022/08/11 15:04:24;;;;;;;3.47;1.20;;;30.60;56.90;;;;;;4984140;28;20248;-84
2022/08/11 15:06:51;;;;;;;2.05;1.30;;;30.60;57.80;;;;;;5020065;28;20181;-84
2022/08/11 15:09:17;;;;;;;2.80;1.38;;;30.60;58.00;;;;;;4984189;28;20194;-86
2022/08/11 15:17:15;;;;;;;2.40;1.20;;;30.40;58.60;;;;;;4971396;28;20195;-87
2022/08/11 15:25:13;;;;;;;2.53;1.17;;;30.30;57.70;;;;;;5014790;28;20258;-86
2022/08/11 15:38:52;;;;;;;1.55;1.20;;;30.00;58.30;;;;;;5016337;28;20249;-83
2022/08/11 15:47:00;;;;;;;2.90;1.13;;;29.80;57.80;;;;;;5000668;28;20171;-85
2022/08/11 15:49:33;;;;;;;4.60;1.58;;;29.70;57.80;;;;;;5000729;28;20505;-83
2022/08/11 15:52:20;;;;;;;2.22;1.45;;;29.60;57.20;;;;;;4982981;28;20219;-84
2022/08/11 15:54:47;;;;;;;1.30;1.00;;;29.60;57.50;;;;;;5012697;28;20215;-84
2022/08/11 16:04:10;;;;;;;1.95;1.08;;;29.60;57.80;;;;;;5002557;28;20207;-83
2022/08/11 16:05:23;;;;;;;3.85;1.30;;;29.40;58.70;;;;;;5016245;28;20934;-85
2022/08/11 16:07:52;;;;;;;2.67;1.20;;;29.40;58.20;;;;;;4997802;28;20202;-86
2022/08/11 16:10:22;;;;;;;3.65;1.10;;;29.30;58.00;;;;;;4999105;28;20222;-83
2022/08/11 16:18:39;;;;;;;4.75;1.38;;;29.20;59.30;;;;;;4997359;28;20193;-84
2022/08/11 16:21:14;;;;;;;6.30;1.67;;;29.10;58.40;;;;;;4997094;28;20218;-83
2022/08/11 16:23:44;;;;;;;2.00;1.20;;;29.10;59.10;;;;;;5011919;28;20249;-83
2022/08/11 16:26:11;;;;;;;1.83;1.08;;;29.00;58.90;;;;;;5017063;28;20174;-86
2022/08/11 16:28:40;;;;;;;1.58;1.23;;;28.90;58.60;;;;;;4998484;28;20241;-82
2022/08/11 16:31:09;;;;;;;6.18;1.30;;;28.90;58.80;;;;;;4999170;28;20207;-86
2022/08/11 16:33:40;;;;;;;1.73;1.10;;;28.80;59.10;;;;;;4984508;28;20183;-88
2022/08/11 16:38:56;;;;;;;3.15;1.38;;;28.90;58.20;;;;;;4996776;28;20677;-83
2022/08/11 16:47:00;;;;;;;1.98;1.27;;;28.80;58.90;;;;;;4997169;28;20521;-87
2022/08/11 16:49:45;;;;;;;4.90;1.52;;;28.70;58.90;;;;;;4979349;28;20184;-83
2022/08/11 16:52:11;;;;;;;3.80;1.13;;;28.70;58.70;;;;;;5011573;28;20206;-84
2022/08/11 16:54:38;;;;;;;1.77;1.20;;;28.70;58.90;;;;;;5015638;28;20221;-86
2022/08/11 17:00:03;;;;;;;3.15;1.20;;;28.60;59.10;;;;;;5016511;28;20217;-87
2022/08/11 17:14:05;;;;;;;3.38;1.30;;;28.30;59.80;;;;;;4996945;28;20178;-84
2022/08/11 17:16:35;;;;;;;4.65;1.40;;;28.20;59.40;;;;;;4995598;28;20199;-87
2022/08/11 17:19:12;;;;;;;2.95;1.20;;;28.20;60.40;;;;;;5001789;28;20274;-87
2022/08/11 17:24:35;;;;;;;3.28;1.30;;;28.20;60.20;;;;;;4996193;28;20554;-86
2022/08/11 17:27:02;;;;;;;1.50;1.20;;;28.10;60.10;;;;;;4978439;28;20182;-86
2022/08/11 17:29:57;;;;;;;4.60;1.23;;;28.00;59.40;;;;;;4978450;28;20264;-87
2022/08/11 17:35:29;;;;;;;3.50;1.10;;;28.00;60.30;;;;;;5015723;28;20205;-88
2022/08/11 17:38:02;;;;;;;2.92;1.20;;;27.90;60.10;;;;;;5002328;28;20191;-86
2022/08/11 17:40:30;;;;;;;2.15;1.20;;;27.80;59.70;;;;;;5015549;28;20171;-88
2022/08/11 17:48:31;;;;;;;4.45;1.35;;;27.60;60.70;;;;;;5015086;28;20194;-86
2022/08/11 17:51:00;;;;;;;2.78;1.20;;;27.60;60.60;;;;;;4997434;28;20270;-85
2022/08/11 18:01:48;;;;;;;1.58;1.20;;;27.40;61.30;;;;;;4995840;28;20227;-88
2022/08/11 18:04:16;;;;;;;3.50;1.10;;;27.30;61.70;;;;;;4991587;28;20187;-88
2022/08/11 18:06:42;;;;;;;2.08;1.10;;;27.30;61.60;;;;;;5014797;28;20179;-89
